Flowella, Texas
Current Conditions -  °F | °C
As of 8:55 PM on Wednesday 22 Oct 2014 (Local Time) from KBKS Reporting Station
Clear Clear  
Wind Chill: 72°   Ceiling: Unl
Heat Index: 72°   Visibility: 10mi
Dew Point: 65°   Wind: 7mph
Humidity: 80%   Direction: 70°ENE
Pressure: 30.03"   Gusts: NA
Location:  27.2181°N, 98.2459°W
Report Text: KBKS 230155Z AUTO 07006KT 10SM CLR 22/19 A3003 RMK AO1 T02210185
Loading
Personal Weather Stations






























Interactive Weather Map
Tropical Storm Tracking
New forecast layout! Learn more

10-Day Weather Forecast

Advertisements
Track Severe Weather on mobile